sensor_id;sensor_type;location;lat;lon;timestamp;P1;durP1;ratioP1;P2;durP2;ratioP2
19760;SDS011;10039;42.632;23.408;2023-06-19T00:01:51;0.17;;;0.17;;
19760;SDS011;10039;42.632;23.408;2023-06-19T00:04:17;0.10;;;0.10;;
19760;SDS011;10039;42.632;23.408;2023-06-19T00:06:43;0.10;;;0.10;;
19760;SDS011;10039;42.632;23.408;2023-06-19T00:09:08;0.10;;;0.10;;
19760;SDS011;10039;42.632;23.408;2023-06-19T00:11:34;0.10;;;0.10;;
19760;SDS011;10039;42.632;23.408;2023-06-19T00:13:59;0.10;;;0.10;;
19760;SDS011;10039;42.632;23.408;2023-06-19T00:16:26;0.10;;;0.10;;
19760;SDS011;10039;42.632;23.408;2023-06-19T00:18:51;0.08;;;0.08;;
19760;SDS011;10039;42.632;23.408;2023-06-19T00:21:20;0.10;;;0.10;;
19760;SDS011;10039;42.632;23.408;2023-06-19T00:23:49;0.10;;;0.10;;
19760;SDS011;10039;42.632;23.408;2023-06-19T00:26:14;0.20;;;0.20;;
19760;SDS011;10039;42.632;23.408;2023-06-19T00:28:40;0.10;;;0.10;;
19760;SDS011;10039;42.632;23.408;2023-06-19T00:31:08;0.10;;;0.10;;
19760;SDS011;10039;42.632;23.408;2023-06-19T00:33:34;0.10;;;0.10;;
19760;SDS011;10039;42.632;23.408;2023-06-19T00:35:59;0.10;;;0.10;;
19760;SDS011;10039;42.632;23.408;2023-06-19T00:38:26;0.03;;;0.03;;
19760;SDS011;10039;42.632;23.408;2023-06-19T00:40:52;0.10;;;0.10;;
19760;SDS011;10039;42.632;23.408;2023-06-19T00:43:17;0.10;;;0.10;;
19760;SDS011;10039;42.632;23.408;2023-06-19T00:45:43;0.10;;;0.10;;
19760;SDS011;10039;42.632;23.408;2023-06-19T00:48:08;0.10;;;0.10;;
19760;SDS011;10039;42.632;23.408;2023-06-19T00:50:34;0.08;;;0.08;;
19760;SDS011;10039;42.632;23.408;2023-06-19T00:53:02;0.00;;;0.00;;
19760;SDS011;10039;42.632;23.408;2023-06-19T00:55:29;0.00;;;0.00;;
19760;SDS011;10039;42.632;23.408;2023-06-19T00:57:55;0.10;;;0.10;;
19760;SDS011;10039;42.632;23.408;2023-06-19T01:00:21;0.10;;;0.10;;
19760;SDS011;10039;42.632;23.408;2023-06-19T01:02:47;0.03;;;0.03;;
19760;SDS011;10039;42.632;23.408;2023-06-19T01:05:12;0.10;;;0.10;;
19760;SDS011;10039;42.632;23.408;2023-06-19T01:10:32;0.10;;;0.10;;
19760;SDS011;10039;42.632;23.408;2023-06-19T01:13:04;0.10;;;0.10;;
19760;SDS011;10039;42.632;23.408;2023-06-19T01:15:51;0.10;;;0.10;;
19760;SDS011;10039;42.632;23.408;2023-06-19T01:18:18;0.10;;;0.10;;
19760;SDS011;10039;42.632;23.408;2023-06-19T01:20:44;0.10;;;0.10;;
19760;SDS011;10039;42.632;23.408;2023-06-19T01:23:11;0.10;;;0.10;;
19760;SDS011;10039;42.632;23.408;2023-06-19T01:25:37;0.10;;;0.10;;
19760;SDS011;10039;42.632;23.408;2023-06-19T01:28:06;0.10;;;0.10;;
19760;SDS011;10039;42.632;23.408;2023-06-19T01:30:35;0.10;;;0.10;;
19760;SDS011;10039;42.632;23.408;2023-06-19T01:33:19;0.10;;;0.10;;
19760;SDS011;10039;42.632;23.408;2023-06-19T01:35:48;0.10;;;0.10;;
19760;SDS011;10039;42.632;23.408;2023-06-19T01:38:15;0.10;;;0.10;;
19760;SDS011;10039;42.632;23.408;2023-06-19T01:40:42;0.10;;;0.10;;
19760;SDS011;10039;42.632;23.408;2023-06-19T01:43:08;0.10;;;0.10;;
19760;SDS011;10039;42.632;23.408;2023-06-19T01:45:35;0.10;;;0.10;;
19760;SDS011;10039;42.632;23.408;2023-06-19T01:48:00;0.10;;;0.10;;
19760;SDS011;10039;42.632;23.408;2023-06-19T01:50:26;0.10;;;0.10;;
19760;SDS011;10039;42.632;23.408;2023-06-19T01:52:52;0.10;;;0.10;;
19760;SDS011;10039;42.632;23.408;2023-06-19T01:55:17;0.00;;;0.00;;
19760;SDS011;10039;42.632;23.408;2023-06-19T01:57:43;0.10;;;0.10;;
19760;SDS011;10039;42.632;23.408;2023-06-19T02:00:10;0.10;;;0.10;;
19760;SDS011;10039;42.632;23.408;2023-06-19T02:02:36;0.10;;;0.10;;
19760;SDS011;10039;42.632;23.408;2023-06-19T02:05:02;0.10;;;0.10;;
19760;SDS011;10039;42.632;23.408;2023-06-19T02:07:28;0.10;;;0.10;;
19760;SDS011;10039;42.632;23.408;2023-06-19T02:09:53;0.10;;;0.10;;
19760;SDS011;10039;42.632;23.408;2023-06-19T02:12:19;0.10;;;0.10;;
19760;SDS011;10039;42.632;23.408;2023-06-19T02:14:44;0.10;;;0.10;;
19760;SDS011;10039;42.632;23.408;2023-06-19T02:17:10;0.05;;;0.05;;
19760;SDS011;10039;42.632;23.408;2023-06-19T02:19:35;0.10;;;0.10;;
19760;SDS011;10039;42.632;23.408;2023-06-19T02:22:01;0.10;;;0.10;;
19760;SDS011;10039;42.632;23.408;2023-06-19T02:24:27;0.10;;;0.10;;
19760;SDS011;10039;42.632;23.408;2023-06-19T02:26:52;0.10;;;0.10;;
19760;SDS011;10039;42.632;23.408;2023-06-19T02:29:17;0.10;;;0.10;;
19760;SDS011;10039;42.632;23.408;2023-06-19T02:31:44;0.10;;;0.10;;
19760;SDS011;10039;42.632;23.408;2023-06-19T02:34:09;0.10;;;0.10;;
19760;SDS011;10039;42.632;23.408;2023-06-19T02:36:35;0.10;;;0.10;;
19760;SDS011;10039;42.632;23.408;2023-06-19T02:39:01;0.10;;;0.10;;
19760;SDS011;10039;42.632;23.408;2023-06-19T02:41:29;0.10;;;0.10;;
19760;SDS011;10039;42.632;23.408;2023-06-19T02:43:54;0.10;;;0.10;;
19760;SDS011;10039;42.632;23.408;2023-06-19T02:46:20;0.10;;;0.10;;
19760;SDS011;10039;42.632;23.408;2023-06-19T02:48:45;0.08;;;0.08;;
19760;SDS011;10039;42.632;23.408;2023-06-19T02:51:11;0.10;;;0.10;;
19760;SDS011;10039;42.632;23.408;2023-06-19T02:53:36;0.10;;;0.10;;
19760;SDS011;10039;42.632;23.408;2023-06-19T02:56:02;0.10;;;0.10;;
19760;SDS011;10039;42.632;23.408;2023-06-19T02:58:27;0.10;;;0.10;;
19760;SDS011;10039;42.632;23.408;2023-06-19T03:00:53;0.00;;;0.00;;
19760;SDS011;10039;42.632;23.408;2023-06-19T03:03:18;0.10;;;0.10;;
19760;SDS011;10039;42.632;23.408;2023-06-19T03:05:44;0.10;;;0.10;;
19760;SDS011;10039;42.632;23.408;2023-06-19T03:08:09;0.10;;;0.10;;
19760;SDS011;10039;42.632;23.408;2023-06-19T03:10:35;0.10;;;0.10;;
19760;SDS011;10039;42.632;23.408;2023-06-19T03:13:01;0.10;;;0.10;;
19760;SDS011;10039;42.632;23.408;2023-06-19T03:15:26;0.10;;;0.10;;
19760;SDS011;10039;42.632;23.408;2023-06-19T03:17:52;0.10;;;0.10;;
19760;SDS011;10039;42.632;23.408;2023-06-19T03:20:18;0.10;;;0.10;;
19760;SDS011;10039;42.632;23.408;2023-06-19T03:22:45;0.13;;;0.13;;
19760;SDS011;10039;42.632;23.408;2023-06-19T03:25:11;0.10;;;0.10;;
19760;SDS011;10039;42.632;23.408;2023-06-19T03:27:36;0.10;;;0.10;;
19760;SDS011;10039;42.632;23.408;2023-06-19T03:30:02;0.10;;;0.10;;
19760;SDS011;10039;42.632;23.408;2023-06-19T03:32:33;0.10;;;0.10;;
19760;SDS011;10039;42.632;23.408;2023-06-19T03:34:58;0.10;;;0.10;;
19760;SDS011;10039;42.632;23.408;2023-06-19T03:37:24;0.10;;;0.10;;
19760;SDS011;10039;42.632;23.408;2023-06-19T03:39:49;0.20;;;0.20;;
19760;SDS011;10039;42.632;23.408;2023-06-19T03:42:15;0.10;;;0.10;;
19760;SDS011;10039;42.632;23.408;2023-06-19T03:44:40;0.10;;;0.10;;
19760;SDS011;10039;42.632;23.408;2023-06-19T03:47:06;0.17;;;0.17;;
19760;SDS011;10039;42.632;23.408;2023-06-19T03:49:31;0.10;;;0.10;;
19760;SDS011;10039;42.632;23.408;2023-06-19T03:51:57;0.20;;;0.20;;
19760;SDS011;10039;42.632;23.408;2023-06-19T03:54:22;0.10;;;0.10;;
19760;SDS011;10039;42.632;23.408;2023-06-19T03:56:48;0.10;;;0.10;;
19760;SDS011;10039;42.632;23.408;2023-06-19T03:59:13;0.10;;;0.10;;
19760;SDS011;10039;42.632;23.408;2023-06-19T04:01:39;0.10;;;0.10;;
19760;SDS011;10039;42.632;23.408;2023-06-19T04:04:05;0.17;;;0.17;;
19760;SDS011;10039;42.632;23.408;2023-06-19T04:06:31;0.20;;;0.20;;
19760;SDS011;10039;42.632;23.408;2023-06-19T04:08:56;0.10;;;0.10;;
19760;SDS011;10039;42.632;23.408;2023-06-19T04:11:22;0.10;;;0.10;;
19760;SDS011;10039;42.632;23.408;2023-06-19T04:13:47;0.10;;;0.10;;
19760;SDS011;10039;42.632;23.408;2023-06-19T04:16:13;0.00;;;0.00;;
19760;SDS011;10039;42.632;23.408;2023-06-19T04:18:38;0.10;;;0.10;;
19760;SDS011;10039;42.632;23.408;2023-06-19T04:21:04;0.10;;;0.10;;
19760;SDS011;10039;42.632;23.408;2023-06-19T04:23:29;0.10;;;0.10;;
19760;SDS011;10039;42.632;23.408;2023-06-19T04:25:55;0.10;;;0.10;;
19760;SDS011;10039;42.632;23.408;2023-06-19T04:28:20;0.03;;;0.03;;
19760;SDS011;10039;42.632;23.408;2023-06-19T04:30:46;0.10;;;0.10;;
19760;SDS011;10039;42.632;23.408;2023-06-19T04:33:11;0.10;;;0.10;;
19760;SDS011;10039;42.632;23.408;2023-06-19T04:35:37;0.10;;;0.10;;
19760;SDS011;10039;42.632;23.408;2023-06-19T04:38:05;0.00;;;0.00;;
19760;SDS011;10039;42.632;23.408;2023-06-19T04:40:31;0.17;;;0.17;;
19760;SDS011;10039;42.632;23.408;2023-06-19T04:42:57;0.10;;;0.10;;
19760;SDS011;10039;42.632;23.408;2023-06-19T04:45:23;0.10;;;0.10;;
19760;SDS011;10039;42.632;23.408;2023-06-19T04:47:48;0.10;;;0.10;;
19760;SDS011;10039;42.632;23.408;2023-06-19T04:50:13;0.10;;;0.10;;
19760;SDS011;10039;42.632;23.408;2023-06-19T04:52:40;0.10;;;0.10;;
19760;SDS011;10039;42.632;23.408;2023-06-19T04:55:06;0.10;;;0.10;;
19760;SDS011;10039;42.632;23.408;2023-06-19T04:57:34;0.10;;;0.10;;
19760;SDS011;10039;42.632;23.408;2023-06-19T05:00:02;0.00;;;0.00;;
19760;SDS011;10039;42.632;23.408;2023-06-19T05:02:32;0.10;;;0.10;;
19760;SDS011;10039;42.632;23.408;2023-06-19T05:04:58;0.10;;;0.10;;
19760;SDS011;10039;42.632;23.408;2023-06-19T05:07:31;0.10;;;0.10;;
19760;SDS011;10039;42.632;23.408;2023-06-19T05:09:57;0.10;;;0.10;;
19760;SDS011;10039;42.632;23.408;2023-06-19T05:12:23;0.10;;;0.10;;
19760;SDS011;10039;42.632;23.408;2023-06-19T05:14:49;0.10;;;0.10;;
19760;SDS011;10039;42.632;23.408;2023-06-19T05:17:14;0.10;;;0.10;;
19760;SDS011;10039;42.632;23.408;2023-06-19T05:19:39;0.00;;;0.00;;
19760;SDS011;10039;42.632;23.408;2023-06-19T05:22:05;0.08;;;0.08;;
19760;SDS011;10039;42.632;23.408;2023-06-19T05:24:31;0.10;;;0.10;;
19760;SDS011;10039;42.632;23.408;2023-06-19T05:26:57;0.10;;;0.10;;
19760;SDS011;10039;42.632;23.408;2023-06-19T05:29:22;0.10;;;0.10;;
19760;SDS011;10039;42.632;23.408;2023-06-19T05:31:48;0.00;;;0.00;;
19760;SDS011;10039;42.632;23.408;2023-06-19T05:34:13;0.00;;;0.00;;
19760;SDS011;10039;42.632;23.408;2023-06-19T05:36:38;0.10;;;0.10;;
19760;SDS011;10039;42.632;23.408;2023-06-19T05:39:04;0.10;;;0.10;;
19760;SDS011;10039;42.632;23.408;2023-06-19T05:41:29;0.10;;;0.10;;
19760;SDS011;10039;42.632;23.408;2023-06-19T05:43:57;0.10;;;0.10;;
19760;SDS011;10039;42.632;23.408;2023-06-19T05:46:23;0.00;;;0.00;;
19760;SDS011;10039;42.632;23.408;2023-06-19T05:48:48;0.10;;;0.10;;
19760;SDS011;10039;42.632;23.408;2023-06-19T05:51:14;0.10;;;0.10;;
19760;SDS011;10039;42.632;23.408;2023-06-19T05:53:39;0.10;;;0.10;;
19760;SDS011;10039;42.632;23.408;2023-06-19T05:56:05;0.10;;;0.10;;
19760;SDS011;10039;42.632;23.408;2023-06-19T05:58:31;0.10;;;0.10;;
19760;SDS011;10039;42.632;23.408;2023-06-19T06:00:56;0.10;;;0.10;;
19760;SDS011;10039;42.632;23.408;2023-06-19T06:03:26;0.10;;;0.10;;
19760;SDS011;10039;42.632;23.408;2023-06-19T06:05:52;0.00;;;0.00;;
19760;SDS011;10039;42.632;23.408;2023-06-19T06:08:18;0.10;;;0.10;;
19760;SDS011;10039;42.632;23.408;2023-06-19T06:10:43;0.00;;;0.00;;
19760;SDS011;10039;42.632;23.408;2023-06-19T06:13:09;0.10;;;0.10;;
19760;SDS011;10039;42.632;23.408;2023-06-19T06:15:34;0.10;;;0.10;;
19760;SDS011;10039;42.632;23.408;2023-06-19T06:18:00;0.05;;;0.05;;
19760;SDS011;10039;42.632;23.408;2023-06-19T06:20:25;0.10;;;0.10;;
19760;SDS011;10039;42.632;23.408;2023-06-19T06:22:52;0.08;;;0.08;;
19760;SDS011;10039;42.632;23.408;2023-06-19T06:25:18;0.10;;;0.10;;
19760;SDS011;10039;42.632;23.408;2023-06-19T06:27:44;0.00;;;0.00;;
19760;SDS011;10039;42.632;23.408;2023-06-19T06:30:09;0.10;;;0.10;;
19760;SDS011;10039;42.632;23.408;2023-06-19T06:32:36;0.03;;;0.03;;
19760;SDS011;10039;42.632;23.408;2023-06-19T06:35:02;0.10;;;0.10;;
19760;SDS011;10039;42.632;23.408;2023-06-19T06:37:27;0.00;;;0.00;;
19760;SDS011;10039;42.632;23.408;2023-06-19T06:39:53;0.10;;;0.10;;
19760;SDS011;10039;42.632;23.408;2023-06-19T06:42:18;0.00;;;0.00;;
19760;SDS011;10039;42.632;23.408;2023-06-19T06:44:44;0.00;;;0.00;;
19760;SDS011;10039;42.632;23.408;2023-06-19T06:47:10;0.10;;;0.10;;
19760;SDS011;10039;42.632;23.408;2023-06-19T06:49:35;0.00;;;0.00;;
19760;SDS011;10039;42.632;23.408;2023-06-19T06:52:02;0.00;;;0.00;;
19760;SDS011;10039;42.632;23.408;2023-06-19T06:54:33;0.08;;;0.08;;
19760;SDS011;10039;42.632;23.408;2023-06-19T06:56:59;0.00;;;0.00;;
19760;SDS011;10039;42.632;23.408;2023-06-19T06:59:25;0.00;;;0.00;;
19760;SDS011;10039;42.632;23.408;2023-06-19T07:01:52;0.00;;;0.00;;
19760;SDS011;10039;42.632;23.408;2023-06-19T07:04:18;0.10;;;0.10;;
19760;SDS011;10039;42.632;23.408;2023-06-19T07:06:43;0.00;;;0.00;;
19760;SDS011;10039;42.632;23.408;2023-06-19T07:09:09;0.00;;;0.00;;
19760;SDS011;10039;42.632;23.408;2023-06-19T07:11:34;0.10;;;0.10;;
19760;SDS011;10039;42.632;23.408;2023-06-19T07:14:00;0.00;;;0.00;;
19760;SDS011;10039;42.632;23.408;2023-06-19T07:16:25;0.10;;;0.10;;
19760;SDS011;10039;42.632;23.408;2023-06-19T07:18:50;0.05;;;0.05;;
19760;SDS011;10039;42.632;23.408;2023-06-19T07:21:16;0.00;;;0.00;;
19760;SDS011;10039;42.632;23.408;2023-06-19T07:23:42;0.00;;;0.00;;
19760;SDS011;10039;42.632;23.408;2023-06-19T07:26:09;0.00;;;0.00;;
19760;SDS011;10039;42.632;23.408;2023-06-19T07:28:35;0.00;;;0.00;;
19760;SDS011;10039;42.632;23.408;2023-06-19T07:31:03;0.00;;;0.00;;
19760;SDS011;10039;42.632;23.408;2023-06-19T07:33:29;0.00;;;0.00;;
19760;SDS011;10039;42.632;23.408;2023-06-19T07:35:55;0.00;;;0.00;;
19760;SDS011;10039;42.632;23.408;2023-06-19T07:38:21;0.00;;;0.00;;
19760;SDS011;10039;42.632;23.408;2023-06-19T07:40:46;0.00;;;0.00;;
19760;SDS011;10039;42.632;23.408;2023-06-19T07:43:12;0.00;;;0.00;;
19760;SDS011;10039;42.632;23.408;2023-06-19T07:45:37;0.00;;;0.00;;
19760;SDS011;10039;42.632;23.408;2023-06-19T07:48:03;0.00;;;0.00;;
19760;SDS011;10039;42.632;23.408;2023-06-19T07:50:28;0.00;;;0.00;;
19760;SDS011;10039;42.632;23.408;2023-06-19T07:52:54;0.00;;;0.00;;
19760;SDS011;10039;42.632;23.408;2023-06-19T07:55:19;0.00;;;0.00;;
19760;SDS011;10039;42.632;23.408;2023-06-19T07:57:44;0.00;;;0.00;;
19760;SDS011;10039;42.632;23.408;2023-06-19T08:00:10;0.00;;;0.00;;
19760;SDS011;10039;42.632;23.408;2023-06-19T08:02:38;0.00;;;0.00;;
19760;SDS011;10039;42.632;23.408;2023-06-19T08:05:07;0.00;;;0.00;;
19760;SDS011;10039;42.632;23.408;2023-06-19T08:07:33;0.00;;;0.00;;
19760;SDS011;10039;42.632;23.408;2023-06-19T08:09:59;0.08;;;0.08;;
19760;SDS011;10039;42.632;23.408;2023-06-19T08:12:25;0.00;;;0.00;;
19760;SDS011;10039;42.632;23.408;2023-06-19T08:14:51;0.00;;;0.00;;
19760;SDS011;10039;42.632;23.408;2023-06-19T08:17:16;0.00;;;0.00;;
19760;SDS011;10039;42.632;23.408;2023-06-19T08:19:42;0.00;;;0.00;;
19760;SDS011;10039;42.632;23.408;2023-06-19T08:22:07;0.00;;;0.00;;
19760;SDS011;10039;42.632;23.408;2023-06-19T08:24:33;0.00;;;0.00;;
19760;SDS011;10039;42.632;23.408;2023-06-19T08:27:01;0.00;;;0.00;;
19760;SDS011;10039;42.632;23.408;2023-06-19T08:29:26;0.00;;;0.00;;
19760;SDS011;10039;42.632;23.408;2023-06-19T08:31:52;0.00;;;0.00;;
19760;SDS011;10039;42.632;23.408;2023-06-19T08:34:17;0.00;;;0.00;;
19760;SDS011;10039;42.632;23.408;2023-06-19T08:36:43;0.00;;;0.00;;
19760;SDS011;10039;42.632;23.408;2023-06-19T08:39:09;0.00;;;0.00;;
19760;SDS011;10039;42.632;23.408;2023-06-19T08:41:38;0.00;;;0.00;;
19760;SDS011;10039;42.632;23.408;2023-06-19T08:44:04;0.00;;;0.00;;
19760;SDS011;10039;42.632;23.408;2023-06-19T08:46:30;0.00;;;0.00;;
19760;SDS011;10039;42.632;23.408;2023-06-19T08:48:56;0.00;;;0.00;;
19760;SDS011;10039;42.632;23.408;2023-06-19T08:51:22;0.00;;;0.00;;
19760;SDS011;10039;42.632;23.408;2023-06-19T08:53:49;0.00;;;0.00;;
19760;SDS011;10039;42.632;23.408;2023-06-19T08:56:19;0.00;;;0.00;;
19760;SDS011;10039;42.632;23.408;2023-06-19T08:58:45;0.00;;;0.00;;
19760;SDS011;10039;42.632;23.408;2023-06-19T09:01:10;0.00;;;0.00;;
19760;SDS011;10039;42.632;23.408;2023-06-19T09:03:36;0.00;;;0.00;;
19760;SDS011;10039;42.632;23.408;2023-06-19T09:06:07;0.00;;;0.00;;
19760;SDS011;10039;42.632;23.408;2023-06-19T09:08:33;0.00;;;0.00;;
19760;SDS011;10039;42.632;23.408;2023-06-19T09:11:00;0.00;;;0.00;;
19760;SDS011;10039;42.632;23.408;2023-06-19T09:13:27;0.00;;;0.00;;
19760;SDS011;10039;42.632;23.408;2023-06-19T09:18:44;0.00;;;0.00;;
19760;SDS011;10039;42.632;23.408;2023-06-19T09:21:17;0.00;;;0.00;;
19760;SDS011;10039;42.632;23.408;2023-06-19T09:23:44;0.00;;;0.00;;
19760;SDS011;10039;42.632;23.408;2023-06-19T09:26:10;0.00;;;0.00;;
19760;SDS011;10039;42.632;23.408;2023-06-19T09:28:40;0.00;;;0.00;;
19760;SDS011;10039;42.632;23.408;2023-06-19T09:31:07;0.00;;;0.00;;
19760;SDS011;10039;42.632;23.408;2023-06-19T09:55:31;0.00;;;0.00;;
19760;SDS011;10039;42.632;23.408;2023-06-19T09:57:58;0.00;;;0.00;;
19760;SDS011;10039;42.632;23.408;2023-06-19T10:00:24;0.00;;;0.00;;
19760;SDS011;10039;42.632;23.408;2023-06-19T10:02:56;0.00;;;0.00;;
19760;SDS011;10039;42.632;23.408;2023-06-19T10:05:29;0.00;;;0.00;;
19760;SDS011;10039;42.632;23.408;2023-06-19T10:07:55;0.00;;;0.00;;
19760;SDS011;10039;42.632;23.408;2023-06-19T10:10:25;0.00;;;0.00;;
19760;SDS011;10039;42.632;23.408;2023-06-19T10:12:57;0.00;;;0.00;;
19760;SDS011;10039;42.632;23.408;2023-06-19T10:15:25;0.00;;;0.00;;
19760;SDS011;10039;42.632;23.408;2023-06-19T10:18:01;0.00;;;0.00;;
19760;SDS011;10039;42.632;23.408;2023-06-19T10:20:29;0.00;;;0.00;;
19760;SDS011;10039;42.632;23.408;2023-06-19T10:23:11;0.00;;;0.00;;
19760;SDS011;10039;42.632;23.408;2023-06-19T10:25:37;0.00;;;0.00;;
19760;SDS011;10039;42.632;23.408;2023-06-19T10:28:04;0.00;;;0.00;;
19760;SDS011;10039;42.632;23.408;2023-06-19T10:30:44;0.00;;;0.00;;
19760;SDS011;10039;42.632;23.408;2023-06-19T10:33:10;0.00;;;0.00;;
19760;SDS011;10039;42.632;23.408;2023-06-19T10:35:39;0.00;;;0.00;;
19760;SDS011;10039;42.632;23.408;2023-06-19T10:38:06;0.00;;;0.00;;
19760;SDS011;10039;42.632;23.408;2023-06-19T10:40:32;0.00;;;0.00;;
19760;SDS011;10039;42.632;23.408;2023-06-19T10:42:57;0.00;;;0.00;;
19760;SDS011;10039;42.632;23.408;2023-06-19T10:45:23;0.00;;;0.00;;
19760;SDS011;10039;42.632;23.408;2023-06-19T10:47:53;0.00;;;0.00;;
19760;SDS011;10039;42.632;23.408;2023-06-19T10:50:19;0.00;;;0.00;;
19760;SDS011;10039;42.632;23.408;2023-06-19T10:52:45;0.00;;;0.00;;
19760;SDS011;10039;42.632;23.408;2023-06-19T10:55:12;0.00;;;0.00;;
19760;SDS011;10039;42.632;23.408;2023-06-19T10:57:38;0.00;;;0.00;;
19760;SDS011;10039;42.632;23.408;2023-06-19T11:00:05;0.00;;;0.00;;
19760;SDS011;10039;42.632;23.408;2023-06-19T11:02:38;0.00;;;0.00;;
19760;SDS011;10039;42.632;23.408;2023-06-19T11:05:05;0.00;;;0.00;;
19760;SDS011;10039;42.632;23.408;2023-06-19T11:07:31;0.00;;;0.00;;
19760;SDS011;10039;42.632;23.408;2023-06-19T11:09:57;0.00;;;0.00;;
19760;SDS011;10039;42.632;23.408;2023-06-19T11:12:23;0.00;;;0.00;;
19760;SDS011;10039;42.632;23.408;2023-06-19T11:14:49;0.00;;;0.00;;
19760;SDS011;10039;42.632;23.408;2023-06-19T11:17:15;0.00;;;0.00;;
19760;SDS011;10039;42.632;23.408;2023-06-19T11:19:43;0.00;;;0.00;;
19760;SDS011;10039;42.632;23.408;2023-06-19T11:22:09;0.00;;;0.00;;
19760;SDS011;10039;42.632;23.408;2023-06-19T11:24:36;0.00;;;0.00;;
19760;SDS011;10039;42.632;23.408;2023-06-19T11:27:02;0.00;;;0.00;;
19760;SDS011;10039;42.632;23.408;2023-06-19T11:29:31;0.00;;;0.00;;
19760;SDS011;10039;42.632;23.408;2023-06-19T11:32:11;0.00;;;0.00;;
19760;SDS011;10039;42.632;23.408;2023-06-19T11:34:38;0.00;;;0.00;;
19760;SDS011;10039;42.632;23.408;2023-06-19T11:37:16;0.00;;;0.00;;
19760;SDS011;10039;42.632;23.408;2023-06-19T11:39:49;0.00;;;0.00;;
19760;SDS011;10039;42.632;23.408;2023-06-19T11:42:18;0.00;;;0.00;;
19760;SDS011;10039;42.632;23.408;2023-06-19T11:44:53;0.00;;;0.00;;
19760;SDS011;10039;42.632;23.408;2023-06-19T11:47:22;0.00;;;0.00;;
19760;SDS011;10039;42.632;23.408;2023-06-19T11:49:48;0.00;;;0.00;;
19760;SDS011;10039;42.632;23.408;2023-06-19T11:52:15;0.00;;;0.00;;
19760;SDS011;10039;42.632;23.408;2023-06-19T11:54:40;0.00;;;0.00;;
19760;SDS011;10039;42.632;23.408;2023-06-19T11:57:06;0.00;;;0.00;;
19760;SDS011;10039;42.632;23.408;2023-06-19T11:59:32;0.00;;;0.00;;
19760;SDS011;10039;42.632;23.408;2023-06-19T12:01:57;0.00;;;0.00;;
19760;SDS011;10039;42.632;23.408;2023-06-19T12:04:24;0.00;;;0.00;;
19760;SDS011;10039;42.632;23.408;2023-06-19T12:06:50;0.00;;;0.00;;
19760;SDS011;10039;42.632;23.408;2023-06-19T12:09:17;0.00;;;0.00;;
19760;SDS011;10039;42.632;23.408;2023-06-19T12:11:43;0.00;;;0.00;;
19760;SDS011;10039;42.632;23.408;2023-06-19T12:14:08;0.00;;;0.00;;
19760;SDS011;10039;42.632;23.408;2023-06-19T12:16:33;0.00;;;0.00;;
19760;SDS011;10039;42.632;23.408;2023-06-19T12:18:59;0.00;;;0.00;;
19760;SDS011;10039;42.632;23.408;2023-06-19T12:21:24;0.00;;;0.00;;
19760;SDS011;10039;42.632;23.408;2023-06-19T12:23:50;0.00;;;0.00;;
19760;SDS011;10039;42.632;23.408;2023-06-19T12:26:15;0.00;;;0.00;;
19760;SDS011;10039;42.632;23.408;2023-06-19T12:28:41;0.00;;;0.00;;
19760;SDS011;10039;42.632;23.408;2023-06-19T12:31:06;0.00;;;0.00;;
19760;SDS011;10039;42.632;23.408;2023-06-19T12:33:32;0.00;;;0.00;;
19760;SDS011;10039;42.632;23.408;2023-06-19T12:35:58;0.00;;;0.00;;
19760;SDS011;10039;42.632;23.408;2023-06-19T12:38:23;0.00;;;0.00;;
19760;SDS011;10039;42.632;23.408;2023-06-19T12:40:49;0.00;;;0.00;;
19760;SDS011;10039;42.632;23.408;2023-06-19T12:43:14;0.00;;;0.00;;
19760;SDS011;10039;42.632;23.408;2023-06-19T12:45:40;0.00;;;0.00;;
19760;SDS011;10039;42.632;23.408;2023-06-19T12:48:06;0.00;;;0.00;;
19760;SDS011;10039;42.632;23.408;2023-06-19T12:50:32;0.00;;;0.00;;
19760;SDS011;10039;42.632;23.408;2023-06-19T12:52:57;0.00;;;0.00;;
19760;SDS011;10039;42.632;23.408;2023-06-19T12:55:23;0.00;;;0.00;;
19760;SDS011;10039;42.632;23.408;2023-06-19T12:57:48;0.00;;;0.00;;
19760;SDS011;10039;42.632;23.408;2023-06-19T13:00:13;0.00;;;0.00;;
19760;SDS011;10039;42.632;23.408;2023-06-19T13:02:39;0.00;;;0.00;;
19760;SDS011;10039;42.632;23.408;2023-06-19T13:05:06;0.00;;;0.00;;
19760;SDS011;10039;42.632;23.408;2023-06-19T13:07:32;0.00;;;0.00;;
19760;SDS011;10039;42.632;23.408;2023-06-19T13:09:57;0.00;;;0.00;;
19760;SDS011;10039;42.632;23.408;2023-06-19T13:12:23;0.00;;;0.00;;
19760;SDS011;10039;42.632;23.408;2023-06-19T13:14:48;0.00;;;0.00;;
19760;SDS011;10039;42.632;23.408;2023-06-19T13:17:14;0.00;;;0.00;;
19760;SDS011;10039;42.632;23.408;2023-06-19T13:19:39;0.00;;;0.00;;
19760;SDS011;10039;42.632;23.408;2023-06-19T13:22:05;0.00;;;0.00;;
19760;SDS011;10039;42.632;23.408;2023-06-19T13:24:31;0.00;;;0.00;;
19760;SDS011;10039;42.632;23.408;2023-06-19T13:26:56;0.00;;;0.00;;
19760;SDS011;10039;42.632;23.408;2023-06-19T13:29:22;0.00;;;0.00;;
19760;SDS011;10039;42.632;23.408;2023-06-19T13:31:48;0.00;;;0.00;;
19760;SDS011;10039;42.632;23.408;2023-06-19T13:34:13;0.00;;;0.00;;
19760;SDS011;10039;42.632;23.408;2023-06-19T13:36:38;0.00;;;0.00;;
19760;SDS011;10039;42.632;23.408;2023-06-19T13:39:05;0.00;;;0.00;;
19760;SDS011;10039;42.632;23.408;2023-06-19T13:41:30;0.00;;;0.00;;
19760;SDS011;10039;42.632;23.408;2023-06-19T13:43:57;0.00;;;0.00;;
19760;SDS011;10039;42.632;23.408;2023-06-19T13:46:26;0.00;;;0.00;;
19760;SDS011;10039;42.632;23.408;2023-06-19T13:48:52;0.00;;;0.00;;
19760;SDS011;10039;42.632;23.408;2023-06-19T13:51:18;0.00;;;0.00;;
19760;SDS011;10039;42.632;23.408;2023-06-19T13:53:48;0.00;;;0.00;;
19760;SDS011;10039;42.632;23.408;2023-06-19T13:56:14;0.00;;;0.00;;
19760;SDS011;10039;42.632;23.408;2023-06-19T13:58:40;0.00;;;0.00;;
19760;SDS011;10039;42.632;23.408;2023-06-19T14:01:05;0.00;;;0.00;;
19760;SDS011;10039;42.632;23.408;2023-06-19T14:03:31;0.00;;;0.00;;
19760;SDS011;10039;42.632;23.408;2023-06-19T14:05:56;0.00;;;0.00;;
19760;SDS011;10039;42.632;23.408;2023-06-19T14:08:22;0.00;;;0.00;;
19760;SDS011;10039;42.632;23.408;2023-06-19T14:10:49;0.00;;;0.00;;
19760;SDS011;10039;42.632;23.408;2023-06-19T14:13:15;0.00;;;0.00;;
19760;SDS011;10039;42.632;23.408;2023-06-19T14:15:41;0.00;;;0.00;;
19760;SDS011;10039;42.632;23.408;2023-06-19T14:18:06;0.00;;;0.00;;
19760;SDS011;10039;42.632;23.408;2023-06-19T14:20:32;0.00;;;0.00;;
19760;SDS011;10039;42.632;23.408;2023-06-19T14:22:57;0.00;;;0.00;;
19760;SDS011;10039;42.632;23.408;2023-06-19T14:25:22;0.00;;;0.00;;
19760;SDS011;10039;42.632;23.408;2023-06-19T14:27:51;0.00;;;0.00;;
19760;SDS011;10039;42.632;23.408;2023-06-19T14:30:21;0.00;;;0.00;;
19760;SDS011;10039;42.632;23.408;2023-06-19T14:32:50;0.00;;;0.00;;
19760;SDS011;10039;42.632;23.408;2023-06-19T14:35:16;0.00;;;0.00;;
19760;SDS011;10039;42.632;23.408;2023-06-19T14:37:42;0.00;;;0.00;;
19760;SDS011;10039;42.632;23.408;2023-06-19T14:40:07;0.00;;;0.00;;
19760;SDS011;10039;42.632;23.408;2023-06-19T14:42:33;0.00;;;0.00;;
19760;SDS011;10039;42.632;23.408;2023-06-19T14:44:58;0.00;;;0.00;;
19760;SDS011;10039;42.632;23.408;2023-06-19T14:47:24;0.00;;;0.00;;
19760;SDS011;10039;42.632;23.408;2023-06-19T14:49:50;0.00;;;0.00;;
19760;SDS011;10039;42.632;23.408;2023-06-19T14:52:15;0.00;;;0.00;;
19760;SDS011;10039;42.632;23.408;2023-06-19T14:54:41;0.00;;;0.00;;
19760;SDS011;10039;42.632;23.408;2023-06-19T14:57:07;0.00;;;0.00;;